Aérodrome :
LOGIN :

S'inscrire | Disclaimer

   EN    FR    IT 

 










Légende :    VFR   VFR Marginal   IFR   IFR Intensif   IFR Très Intensif
Visi : 
Plafond : 
>= 8 km
>= 3000ft
5 à 8 km
1000 à 3000 ft
1500m à 5 km
500 à 1000 ft
800 à 1500m
200 à 500 ft
< 800m
< 200 ft
Symboles :   Orages  Brouillard  Fortes neiges  Fortes précipitations  Vent > 20 kt
SIGMETs :   Divers  Orages  Givrage  Turbulence  Onde Orograph.  Cendres Volcan.






- Altitude de l'aérodrome : 645 ft
- Code IATA : DLE


LFGJ - Dole Tavaux

DERNIER METAR :
  • 220200Z AUTO 19020KT 9999 -RA BKN012 BKN030 OVC035 09/07 Q1010

METARs EXPIRÉS :
  • 220130Z AUTO 19021KT 9999 -RA FEW008/// BKN013/// BKN025/// ///TCU 09/07 Q1011
  • 220100Z AUTO 19017KT 9000 -RA FEW015/// BKN034/// OVC044/// //////TCU 09/07 Q1012
  • 220030Z AUTO 20015KT 9999 -RA BKN034/// OVC044/// //////TCU 08/07 Q1013
  • 220000Z AUTO 19017KT 8000 -RA FEW023 BKN037 OVC044 09/07 Q1013
  • 212330Z AUTO 19016KT 9999 -RA BKN036/// BKN042/// OVC052/// //////TCU 09/07 Q1013
  • 212300Z AUTO 19014KT 9000 RA FEW033/// SCT041/// OVC052/// //////CB 09/07 Q1014
  • 212230Z AUTO 18013KT 8000 RA //////CB 09/07 Q1014
  • 212200Z AUTO 20010KT 7000 RA FEW038/// BKN056/// OVC066/// //////CB 09/07 Q1015
  • 212130Z AUTO 22011KT 9999 -RA //////TCU 10/06 Q1015
  • 212100Z AUTO 22011KT 9999 -RA NSC 11/06 Q1015

Prévision TAF périmée.



MET'MAP, la Météo Aéronautique d'un coup d'oeil ! - Copyright ORBIFLY Décembre 2007 - Disclaimer

ORBIFLY MET'MAP TEAM :

Programmation & Développement : Alexandra Zaïnal
Sur une idée originale de : Baudouin d'Aumeries
Soutien technique & logistique : Manuel Goepfert
Assistance : Marc-Olivier Méhu




SOURCES & CREDITS :

   NOAA